createdAt,value
2022-07-25T00:00:30.411Z,27.50
2022-07-25T00:02:57.665Z,27.50
2022-07-25T00:05:24.632Z,27.50
2022-07-25T00:07:51.655Z,27.50
2022-07-25T00:10:18.857Z,27.60
2022-07-25T00:12:47.057Z,27.50
2022-07-25T00:15:15.549Z,27.50
2022-07-25T00:17:43.292Z,27.50
2022-07-25T00:20:10.973Z,27.50
2022-07-25T00:22:38.067Z,27.40
2022-07-25T00:25:06.008Z,27.50
2022-07-25T00:27:33.042Z,27.30
2022-07-25T00:30:00.443Z,27.20
2022-07-25T00:32:28.740Z,27.20
2022-07-25T00:34:56.156Z,27.30
2022-07-25T00:37:23.305Z,27.30
2022-07-25T00:39:50.261Z,27.20
2022-07-25T00:42:17.366Z,27.30
2022-07-25T00:44:44.337Z,27.20
2022-07-25T00:47:11.425Z,27.20
2022-07-25T00:49:39.824Z,27.10
2022-07-25T00:52:07.214Z,27.10
2022-07-25T00:54:34.405Z,27.10
2022-07-25T00:57:01.483Z,26.90
2022-07-25T00:59:29.444Z,26.90
2022-07-25T01:01:56.412Z,26.80
2022-07-25T01:04:23.612Z,26.80
2022-07-25T01:06:52.237Z,26.70
2022-07-25T01:09:20.519Z,26.60
2022-07-25T01:11:47.646Z,26.60
2022-07-25T01:14:14.746Z,26.50
2022-07-25T01:16:41.973Z,26.30
2022-07-25T01:19:09.279Z,26.50
2022-07-25T01:21:40.016Z,26.40
2022-07-25T01:24:09.044Z,26.40
2022-07-25T01:26:36.795Z,26.40
2022-07-25T01:29:04.298Z,26.30
2022-07-25T01:31:31.489Z,26.30
2022-07-25T01:33:58.671Z,26.20
2022-07-25T01:36:26.314Z,26.20
2022-07-25T01:38:54.865Z,26.30
2022-07-25T01:41:22.736Z,26.20
2022-07-25T01:43:50.305Z,26.40
2022-07-25T01:46:17.697Z,26.50
2022-07-25T01:48:44.887Z,26.50
2022-07-25T01:51:12.291Z,26.70
2022-07-25T01:53:39.560Z,26.90
2022-07-25T01:56:08.500Z,27.00
2022-07-25T01:58:37.097Z,26.90
2022-07-25T02:01:04.055Z,26.90
2022-07-25T02:03:31.194Z,26.90
2022-07-25T02:05:59.011Z,26.90
2022-07-25T02:08:25.988Z,26.80
2022-07-25T02:10:53.010Z,26.80
2022-07-25T02:13:21.294Z,26.80
2022-07-25T02:15:48.343Z,26.80
2022-07-25T02:18:15.815Z,26.90
2022-07-25T02:20:42.714Z,26.80
2022-07-25T02:23:09.764Z,26.60
2022-07-25T02:25:37.476Z,26.60
2022-07-25T02:31:19.106Z,26.20
2022-07-25T02:35:44.740Z,26.50
2022-07-25T02:38:13.354Z,26.60
2022-07-25T02:40:40.487Z,26.70
2022-07-25T02:43:07.630Z,26.70
2022-07-25T02:45:35.375Z,26.80
2022-07-25T02:48:02.500Z,26.70
2022-07-25T02:50:29.398Z,26.50
2022-07-25T02:52:57.930Z,26.50
2022-07-25T02:55:25.114Z,26.40
2022-07-25T02:57:52.587Z,26.30
2022-07-25T03:00:19.994Z,26.20
2022-07-25T03:02:46.960Z,26.20
2022-07-25T03:05:14.842Z,26.10
2022-07-25T03:07:43.351Z,26.00
2022-07-25T03:10:14.091Z,26.20
2022-07-25T03:12:42.285Z,26.10
2022-07-25T03:15:11.355Z,26.00
2022-07-25T03:17:39.274Z,26.10
2022-07-25T03:20:07.474Z,26.00
2022-07-25T03:22:35.292Z,25.90
2022-07-25T03:25:02.265Z,25.90
2022-07-25T03:27:30.883Z,25.90
2022-07-25T03:29:58.425Z,25.80
2022-07-25T03:32:25.471Z,25.80
2022-07-25T03:34:52.699Z,25.90
2022-07-25T03:37:19.644Z,26.10
2022-07-25T03:39:46.637Z,26.10
2022-07-25T03:42:13.572Z,26.10
2022-07-25T03:44:42.215Z,26.20
2022-07-25T03:47:09.165Z,26.20
2022-07-25T03:49:47.700Z,26.10
2022-07-25T03:52:14.850Z,26.10
2022-07-25T03:54:42.154Z,26.20
2022-07-25T03:57:11.646Z,26.10
2022-07-25T03:59:38.975Z,26.10
2022-07-25T04:02:07.373Z,26.20
2022-07-25T04:04:34.390Z,26.00
2022-07-25T04:07:01.336Z,25.80
2022-07-25T04:09:28.332Z,25.80
2022-07-25T04:12:00.817Z,25.80
2022-07-25T04:14:27.760Z,25.80
2022-07-25T04:16:54.716Z,25.90
2022-07-25T04:19:23.104Z,26.00
2022-07-25T04:21:53.210Z,26.00
2022-07-25T04:24:20.476Z,26.00
2022-07-25T04:26:47.424Z,26.10
2022-07-25T04:29:14.316Z,26.30
2022-07-25T04:31:41.476Z,26.30
2022-07-25T04:34:08.899Z,26.50
2022-07-25T04:36:37.455Z,26.50
2022-07-25T04:39:04.736Z,26.70
2022-07-25T04:43:48.525Z,26.60
2022-07-25T04:46:18.953Z,26.60
2022-07-25T04:48:46.379Z,26.80
2022-07-25T04:51:14.228Z,26.90
2022-07-25T04:53:41.234Z,27.10
2022-07-25T04:56:10.644Z,27.00
2022-07-25T04:58:37.662Z,27.00
2022-07-25T05:01:06.197Z,27.10
2022-07-25T05:03:33.511Z,27.20
2022-07-25T05:06:00.472Z,27.20
2022-07-25T05:08:27.372Z,27.30
2022-07-25T05:10:54.322Z,27.50
2022-07-25T05:13:21.624Z,27.50
2022-07-25T05:15:48.566Z,27.70
2022-07-25T05:18:17.026Z,27.90
2022-07-25T05:20:43.955Z,27.70
2022-07-25T05:23:10.881Z,27.80
2022-07-25T05:25:37.831Z,27.80
2022-07-25T05:28:05.656Z,28.00
2022-07-25T05:30:37.802Z,28.00
2022-07-25T05:33:06.865Z,28.10
2022-07-25T05:35:35.579Z,28.30
2022-07-25T05:38:02.854Z,28.40
2022-07-25T05:40:29.933Z,29.00
2022-07-25T05:43:02.406Z,29.90
2022-07-25T05:45:29.834Z,30.20
2022-07-25T05:47:56.962Z,30.40
2022-07-25T05:50:23.956Z,30.70
2022-07-25T05:52:52.649Z,31.20
2022-07-25T05:55:19.924Z,31.50
2022-07-25T05:57:47.114Z,31.40
2022-07-25T06:00:14.848Z,31.10
2022-07-25T06:02:42.100Z,30.80
2022-07-25T06:05:09.311Z,30.40
2022-07-25T06:07:36.497Z,30.30
2022-07-25T06:10:05.519Z,29.90
2022-07-25T06:12:33.689Z,29.80
2022-07-25T06:15:04.057Z,30.00
2022-07-25T06:17:32.665Z,30.30
2022-07-25T06:19:59.931Z,30.50
2022-07-25T06:22:27.196Z,30.50
2022-07-25T06:24:54.157Z,30.20
2022-07-25T06:27:27.432Z,30.20
2022-07-25T06:29:56.123Z,29.90
2022-07-25T06:32:23.275Z,30.00
2022-07-25T06:34:51.208Z,30.00
2022-07-25T06:37:18.392Z,30.20
2022-07-25T06:39:46.130Z,30.50
2022-07-25T06:42:13.356Z,30.90
2022-07-25T06:44:41.946Z,31.10
2022-07-25T06:47:14.843Z,30.60
2022-07-25T06:49:42.384Z,30.50
2022-07-25T06:52:09.413Z,31.10
2022-07-25T06:54:36.824Z,31.40
2022-07-25T06:57:04.490Z,32.70
2022-07-25T06:59:31.661Z,34.40
2022-07-25T07:02:00.312Z,36.10
2022-07-25T07:04:27.575Z,37.90
2022-07-25T07:06:55.007Z,40.20
2022-07-25T07:09:22.165Z,40.90
2022-07-25T07:11:49.160Z,41.10
2022-07-25T07:14:16.721Z,41.10
2022-07-25T07:16:43.696Z,40.40
2022-07-25T07:19:14.506Z,39.40
2022-07-25T07:21:41.595Z,38.40
2022-07-25T07:24:23.929Z,37.30
2022-07-25T07:26:52.833Z,36.20
2022-07-25T07:29:20.531Z,35.30
2022-07-25T07:31:47.896Z,34.20
2022-07-25T07:34:16.810Z,33.80
2022-07-25T07:36:43.986Z,35.40
2022-07-25T07:39:11.793Z,35.90
2022-07-25T07:41:39.192Z,36.80
2022-07-25T07:44:06.613Z,36.30
2022-07-25T07:46:33.676Z,35.20
2022-07-25T07:49:02.012Z,34.70
2022-07-25T07:51:30.670Z,34.40
2022-07-25T07:54:16.840Z,33.60
2022-07-25T07:56:45.684Z,33.10
2022-07-25T07:59:12.959Z,32.90
2022-07-25T08:01:40.174Z,32.60
2022-07-25T08:04:07.860Z,32.30
2022-07-25T08:06:36.701Z,32.40
2022-07-25T08:09:04.575Z,33.10
2022-07-25T08:11:32.023Z,33.50
2022-07-25T08:13:59.166Z,33.70
2022-07-25T08:16:26.362Z,33.70
2022-07-25T08:18:53.546Z,33.50
2022-07-25T08:21:20.504Z,33.50
2022-07-25T08:23:48.869Z,33.30
2022-07-25T08:26:16.251Z,33.40
2022-07-25T08:28:43.450Z,33.30
2022-07-25T08:31:10.890Z,33.30
2022-07-25T08:33:38.185Z,33.40
2022-07-25T08:36:05.952Z,33.60
2022-07-25T08:38:35.274Z,33.50
2022-07-25T08:41:04.066Z,33.90
2022-07-25T08:43:33.830Z,34.40
2022-07-25T08:46:01.181Z,34.50
2022-07-25T08:48:29.717Z,34.50
2022-07-25T08:50:57.542Z,34.30
2022-07-25T08:53:34.026Z,34.00
2022-07-25T08:56:09.943Z,33.80
2022-07-25T08:58:39.369Z,33.40
2022-07-25T09:01:08.014Z,33.00
2022-07-25T09:03:36.326Z,32.10
2022-07-25T09:06:13.478Z,31.70
2022-07-25T09:08:50.063Z,31.40
2022-07-25T09:11:27.585Z,31.40
2022-07-25T09:13:58.089Z,31.60
2022-07-25T09:16:29.385Z,32.00
2022-07-25T09:19:05.620Z,32.60
2022-07-25T09:21:32.804Z,33.10
2022-07-25T09:24:09.443Z,33.00
2022-07-25T09:26:49.472Z,32.80
2022-07-25T09:29:18.589Z,33.00
2022-07-25T09:31:46.224Z,33.40
2022-07-25T09:34:16.784Z,33.80
2022-07-25T09:36:51.149Z,34.10
2022-07-25T09:39:18.322Z,34.10
2022-07-25T09:41:45.381Z,33.80
2022-07-25T09:44:17.659Z,33.90
2022-07-25T09:46:44.598Z,34.20
2022-07-25T09:49:14.664Z,34.10
2022-07-25T09:51:41.761Z,34.40
2022-07-25T09:54:09.606Z,34.60
2022-07-25T09:56:37.218Z,34.60
2022-07-25T09:59:04.589Z,34.20
2022-07-25T10:01:39.479Z,33.60
2022-07-25T10:04:14.433Z,33.10
2022-07-25T10:06:50.716Z,33.10
2022-07-25T10:09:18.499Z,33.40
2022-07-25T10:12:04.173Z,33.60
2022-07-25T10:14:31.454Z,34.00
2022-07-25T10:17:01.660Z,34.30
2022-07-25T10:19:49.952Z,34.50
2022-07-25T10:22:34.245Z,34.60
2022-07-25T10:25:11.552Z,34.90
2022-07-25T10:27:43.861Z,35.80
2022-07-25T10:30:20.670Z,35.70
2022-07-25T10:32:56.485Z,35.80
2022-07-25T10:35:23.903Z,35.90
2022-07-25T10:37:51.414Z,35.70
2022-07-25T10:40:26.155Z,35.60
2022-07-25T10:42:56.926Z,35.50
2022-07-25T10:45:26.111Z,35.20
2022-07-25T10:47:55.832Z,35.20
2022-07-25T10:50:40.278Z,35.00
2022-07-25T10:53:10.445Z,34.60
2022-07-25T10:55:37.999Z,34.30
2022-07-25T10:58:22.185Z,34.10
2022-07-25T11:00:51.250Z,33.90
2022-07-25T11:03:20.275Z,33.90
2022-07-25T11:05:47.795Z,33.60
2022-07-25T11:08:23.071Z,33.50
2022-07-25T11:10:50.636Z,33.10
2022-07-25T11:13:17.670Z,33.00
2022-07-25T11:15:44.784Z,33.50
2022-07-25T11:18:12.205Z,33.50
2022-07-25T11:20:40.798Z,33.70
2022-07-25T11:23:07.987Z,33.20
2022-07-25T11:25:35.520Z,32.70
2022-07-25T11:28:04.121Z,32.50
2022-07-25T11:30:31.349Z,32.10
2022-07-25T11:32:59.624Z,31.60
2022-07-25T11:35:27.617Z,31.30
2022-07-25T11:37:56.447Z,30.80
2022-07-25T11:40:25.727Z,30.60
2022-07-25T11:42:54.242Z,30.60
2022-07-25T11:45:23.445Z,30.60
2022-07-25T11:48:01.728Z,30.80
2022-07-25T11:50:30.331Z,31.10
2022-07-25T11:53:01.986Z,31.40
2022-07-25T11:55:30.090Z,31.40
2022-07-25T11:57:58.243Z,31.70
2022-07-25T12:00:25.171Z,31.70
2022-07-25T12:02:52.675Z,31.90
2022-07-25T12:05:21.162Z,31.90
2022-07-25T12:07:50.289Z,32.00
2022-07-25T12:10:19.332Z,31.50
2022-07-25T12:12:48.688Z,30.90
2022-07-25T12:15:18.930Z,30.40
2022-07-25T12:17:46.480Z,30.30
2022-07-25T12:20:14.584Z,30.20
2022-07-25T12:22:41.789Z,29.80
2022-07-25T12:25:09.400Z,29.70
2022-07-25T12:27:37.968Z,29.40
2022-07-25T12:30:05.846Z,29.30
2022-07-25T12:32:32.895Z,29.50
2022-07-25T12:35:00.378Z,29.80
2022-07-25T12:37:27.544Z,29.60
2022-07-25T12:39:54.777Z,29.50
2022-07-25T12:42:21.844Z,29.30
2022-07-25T12:44:50.247Z,29.00
2022-07-25T12:47:17.569Z,28.80
2022-07-25T12:49:44.755Z,28.60
2022-07-25T12:52:11.806Z,28.60
2022-07-25T12:54:38.791Z,28.40
2022-07-25T12:57:05.835Z,28.30
2022-07-25T12:59:32.820Z,28.10
2022-07-25T13:02:01.284Z,27.60
2022-07-25T13:04:28.418Z,27.60
2022-07-25T13:06:56.286Z,27.90
2022-07-25T13:09:23.429Z,28.50
2022-07-25T13:11:50.416Z,29.00
2022-07-25T13:14:17.732Z,29.90
2022-07-25T13:16:45.105Z,31.30
2022-07-25T13:19:13.874Z,31.70
2022-07-25T13:21:41.230Z,31.80
2022-07-25T13:24:08.703Z,32.20
2022-07-25T13:26:37.578Z,32.40
2022-07-25T13:29:09.543Z,32.70
2022-07-25T13:31:37.465Z,33.10
2022-07-25T13:34:04.725Z,33.00
2022-07-25T13:36:33.315Z,32.80
2022-07-25T13:39:00.307Z,32.50
2022-07-25T13:41:27.908Z,32.40
2022-07-25T13:43:55.429Z,32.30
2022-07-25T13:46:22.624Z,32.00
2022-07-25T13:48:50.333Z,31.80
2022-07-25T13:51:17.773Z,31.80
2022-07-25T13:53:46.353Z,32.10
2022-07-25T13:56:13.610Z,32.60
2022-07-25T13:58:40.818Z,32.60
2022-07-25T14:01:08.100Z,32.50
2022-07-25T14:03:36.878Z,32.30
2022-07-25T14:06:03.957Z,32.10
2022-07-25T14:08:31.039Z,31.80
2022-07-25T14:10:59.646Z,31.80
2022-07-25T14:13:26.929Z,31.70
2022-07-25T14:15:54.047Z,31.80
2022-07-25T14:18:21.503Z,31.70
2022-07-25T14:20:49.666Z,31.90
2022-07-25T14:23:16.946Z,32.00
2022-07-25T14:25:43.877Z,32.50
2022-07-25T14:28:12.574Z,32.60
2022-07-25T14:30:39.732Z,32.40
2022-07-25T14:33:07.663Z,32.50
2022-07-25T14:35:35.109Z,32.20
2022-07-25T14:38:02.093Z,31.50
2022-07-25T14:40:29.025Z,31.20
2022-07-25T14:42:56.177Z,31.10
2022-07-25T14:45:24.438Z,31.20
2022-07-25T14:47:51.464Z,31.60
2022-07-25T14:50:18.640Z,31.60
2022-07-25T14:52:46.422Z,31.80
2022-07-25T14:55:13.581Z,31.60
2022-07-25T14:57:40.753Z,31.60
2022-07-25T15:00:09.763Z,31.20
2022-07-25T15:02:38.491Z,30.80
2022-07-25T15:05:05.900Z,30.40
2022-07-25T15:07:32.853Z,30.30
2022-07-25T15:09:59.850Z,30.60
2022-07-25T15:12:27.150Z,30.90
2022-07-25T15:14:54.755Z,31.20
2022-07-25T15:17:21.889Z,31.40
2022-07-25T15:19:50.466Z,31.60
2022-07-25T15:22:17.441Z,31.80
2022-07-25T15:25:17.904Z,31.70
2022-07-25T15:27:31.369Z,31.40
2022-07-25T15:29:58.290Z,31.20
2022-07-25T15:32:25.258Z,31.20
2022-07-25T15:34:53.685Z,30.90
2022-07-25T15:37:21.918Z,30.60
2022-07-25T15:39:49.188Z,30.90
2022-07-25T15:42:16.200Z,30.90
2022-07-25T15:44:43.414Z,31.20
2022-07-25T15:47:10.522Z,31.20
2022-07-25T15:49:37.619Z,30.60
2022-07-25T15:52:06.305Z,30.60
2022-07-25T15:54:33.629Z,30.70
2022-07-25T15:57:01.126Z,30.40
2022-07-25T15:59:28.513Z,30.10
2022-07-25T16:01:55.465Z,30.00
2022-07-25T16:04:22.439Z,30.30
2022-07-25T16:06:49.748Z,30.50
2022-07-25T16:09:19.327Z,30.40
2022-07-25T16:11:46.256Z,30.70
2022-07-25T16:14:13.144Z,30.80
2022-07-25T16:16:40.142Z,30.80
2022-07-25T16:19:09.503Z,30.60
2022-07-25T16:21:36.938Z,30.10
2022-07-25T16:24:04.619Z,29.80
2022-07-25T16:26:34.046Z,29.30
2022-07-25T16:29:01.416Z,29.10
2022-07-25T16:31:28.445Z,29.20
2022-07-25T16:33:55.611Z,29.10
2022-07-25T16:36:22.702Z,29.00
2022-07-25T16:38:49.675Z,28.90
2022-07-25T16:41:16.747Z,28.50
2022-07-25T16:43:45.524Z,28.30
2022-07-25T16:46:12.497Z,28.50
2022-07-25T16:48:39.465Z,28.60
2022-07-25T16:51:06.544Z,28.80
2022-07-25T16:53:33.416Z,29.00
2022-07-25T16:56:00.870Z,29.10
2022-07-25T16:58:28.038Z,29.10
2022-07-25T17:00:56.308Z,28.60
2022-07-25T17:03:23.204Z,28.20
2022-07-25T17:05:51.764Z,28.00
2022-07-25T17:08:18.778Z,27.90
2022-07-25T17:10:45.894Z,27.60
2022-07-25T17:13:13.246Z,27.50
2022-07-25T17:15:40.605Z,27.10
2022-07-25T17:18:09.136Z,26.70
2022-07-25T17:20:36.364Z,26.20
2022-07-25T17:23:03.765Z,26.50
2022-07-25T17:25:30.794Z,26.40
2022-07-25T17:27:57.791Z,26.30
2022-07-25T17:30:24.887Z,26.20
2022-07-25T17:32:53.302Z,26.10
2022-07-25T17:35:21.682Z,26.00
2022-07-25T17:37:48.632Z,26.20
2022-07-25T17:40:15.675Z,26.10
2022-07-25T17:42:45.370Z,26.10
2022-07-25T17:45:13.170Z,25.70
2022-07-25T17:47:40.810Z,25.80
2022-07-25T17:50:08.758Z,25.70
2022-07-25T17:52:37.183Z,25.40
2022-07-25T17:55:05.305Z,25.30
2022-07-25T17:57:33.107Z,25.30
2022-07-25T18:00:00.209Z,25.40
2022-07-25T18:02:27.384Z,25.50
2022-07-25T18:04:54.584Z,25.50
2022-07-25T18:07:21.645Z,25.60
2022-07-25T18:09:50.294Z,25.60
2022-07-25T18:12:17.482Z,25.70
2022-07-25T18:14:44.620Z,25.60
2022-07-25T18:17:11.504Z,25.70
2022-07-25T18:19:38.502Z,25.80
2022-07-25T18:22:05.966Z,25.70
2022-07-25T18:24:33.105Z,25.60
2022-07-25T18:27:02.292Z,25.60
2022-07-25T18:29:29.314Z,25.30
2022-07-25T18:31:56.511Z,25.20
2022-07-25T18:34:23.567Z,25.10
2022-07-25T18:36:50.907Z,25.10
2022-07-25T18:39:17.954Z,25.10
2022-07-25T18:41:44.888Z,25.20
2022-07-25T18:44:13.582Z,25.00
2022-07-25T18:46:42.494Z,25.20
2022-07-25T18:49:11.208Z,25.10
2022-07-25T18:51:39.155Z,25.10
2022-07-25T18:54:06.864Z,25.10
2022-07-25T18:56:34.372Z,25.00
2022-07-25T18:59:01.481Z,25.00
2022-07-25T19:01:31.339Z,24.90
2022-07-25T19:03:58.450Z,25.20
2022-07-25T19:06:25.692Z,25.20
2022-07-25T19:08:52.930Z,24.90
2022-07-25T19:11:19.964Z,25.10
2022-07-25T19:13:50.018Z,25.00
2022-07-25T19:16:18.429Z,25.10
2022-07-25T19:18:47.374Z,25.10
2022-07-25T19:21:15.638Z,25.10
2022-07-25T19:23:48.308Z,24.80
2022-07-25T19:26:17.925Z,24.70
2022-07-25T19:28:45.699Z,24.60
2022-07-25T19:31:17.565Z,24.60
2022-07-25T19:33:46.201Z,24.40
2022-07-25T19:36:18.242Z,24.40
2022-07-25T19:38:45.341Z,24.50
2022-07-25T19:41:12.443Z,24.20
2022-07-25T19:43:39.580Z,24.20
2022-07-25T19:46:07.055Z,24.30
2022-07-25T19:48:34.501Z,24.50
2022-07-25T19:51:02.005Z,24.50
2022-07-25T19:53:31.858Z,24.50
2022-07-25T19:55:59.585Z,24.40
2022-07-25T19:58:26.613Z,24.30
2022-07-25T20:00:53.529Z,24.20
2022-07-25T20:03:22.993Z,24.30
2022-07-25T20:05:50.811Z,24.20
2022-07-25T20:08:18.831Z,24.20
2022-07-25T20:10:50.521Z,24.10
2022-07-25T20:13:17.996Z,23.80
2022-07-25T20:15:45.037Z,23.70
2022-07-25T20:18:16.024Z,23.70
2022-07-25T20:20:46.384Z,23.90
2022-07-25T20:23:13.287Z,23.90
2022-07-25T20:25:40.395Z,23.90
2022-07-25T20:28:08.770Z,23.90
2022-07-25T20:30:35.884Z,23.80
2022-07-25T20:33:08.951Z,23.90
2022-07-25T20:35:37.716Z,24.00
2022-07-25T20:38:08.965Z,24.10
2022-07-25T20:40:37.891Z,24.00
2022-07-25T20:43:09.356Z,23.90
2022-07-25T20:45:36.801Z,23.90
2022-07-25T20:48:03.982Z,23.90
2022-07-25T20:50:31.132Z,23.90
2022-07-25T20:52:58.095Z,24.10
2022-07-25T20:55:25.019Z,23.90
2022-07-25T20:57:52.010Z,23.70
2022-07-25T21:00:21.352Z,23.80
2022-07-25T21:02:48.590Z,24.00
2022-07-25T21:05:15.567Z,23.90
2022-07-25T21:07:42.772Z,23.60
2022-07-25T21:10:10.295Z,23.60
2022-07-25T21:12:37.320Z,23.60
2022-07-25T21:15:04.658Z,23.40
2022-07-25T21:17:33.599Z,23.40
2022-07-25T21:20:00.568Z,23.40
2022-07-25T21:22:27.851Z,23.40
2022-07-25T21:24:54.955Z,23.40
2022-07-25T21:27:22.348Z,23.40
2022-07-25T21:29:49.331Z,23.40
2022-07-25T21:32:17.303Z,23.30
2022-07-25T21:34:46.032Z,23.40
2022-07-25T21:37:13.629Z,23.30
2022-07-25T21:39:40.568Z,23.30
2022-07-25T21:42:09.971Z,23.30
2022-07-25T21:44:38.822Z,23.20
2022-07-25T21:47:05.795Z,23.20
2022-07-25T21:49:51.454Z,23.00
2022-07-25T21:52:19.811Z,22.90
2022-07-25T21:54:57.416Z,23.10
2022-07-25T21:57:24.364Z,23.10
2022-07-25T21:59:51.288Z,22.90
2022-07-25T22:02:18.660Z,23.00
2022-07-25T22:04:45.754Z,22.90
2022-07-25T22:07:12.853Z,22.80
2022-07-25T22:09:41.451Z,22.70
2022-07-25T22:12:08.720Z,22.60
2022-07-25T22:14:36.869Z,22.70
2022-07-25T22:17:03.913Z,22.50
2022-07-25T22:19:31.000Z,22.60
2022-07-25T22:21:57.938Z,22.80
2022-07-25T22:24:25.065Z,23.00
2022-07-25T22:26:53.549Z,22.90
2022-07-25T22:29:20.448Z,22.80
2022-07-25T22:31:47.709Z,23.00
2022-07-25T22:34:14.667Z,22.70
2022-07-25T22:36:41.637Z,22.30
2022-07-25T22:39:08.932Z,22.60
2022-07-25T22:41:36.251Z,22.50
2022-07-25T22:44:04.688Z,22.70
2022-07-25T22:46:31.714Z,22.60
2022-07-25T22:48:59.037Z,22.70
2022-07-25T22:51:26.622Z,22.80
2022-07-25T22:53:53.672Z,22.80
2022-07-25T22:56:20.862Z,23.00
2022-07-25T22:58:49.169Z,23.10
2022-07-25T23:01:17.888Z,23.20
2022-07-25T23:03:44.975Z,23.20
2022-07-25T23:06:12.421Z,23.10
2022-07-25T23:08:39.463Z,23.20
2022-07-25T23:11:06.433Z,23.30
2022-07-25T23:13:33.619Z,23.20
2022-07-25T23:16:00.927Z,23.50
2022-07-25T23:18:32.032Z,23.20
2022-07-25T23:20:59.040Z,23.10
2022-07-25T23:23:26.282Z,23.00
2022-07-25T23:25:53.278Z,23.10
2022-07-25T23:28:20.935Z,23.10
2022-07-25T23:30:47.829Z,23.30
2022-07-25T23:33:14.808Z,23.30
2022-07-25T23:35:43.496Z,23.20
2022-07-25T23:38:10.864Z,23.40
2022-07-25T23:40:37.845Z,23.60
2022-07-25T23:43:05.030Z,23.40
2022-07-25T23:45:31.926Z,23.30
2022-07-25T23:47:58.844Z,23.30
2022-07-25T23:50:25.730Z,23.40
2022-07-25T23:52:54.098Z,23.40
2022-07-25T23:55:21.211Z,23.50
2022-07-25T23:57:48.294Z,23.30
